createdAt,value
2018-02-06T00:00:45.096Z,102360.05
2018-02-06T00:03:12.563Z,102356.61
2018-02-06T00:05:40.035Z,102351.87
2018-02-06T00:08:07.518Z,102351.87
2018-02-06T00:10:35.016Z,102345.43
2018-02-06T00:13:02.502Z,102344.56
2018-02-06T00:15:29.991Z,102339.84
2018-02-06T00:17:57.466Z,102339.39
2018-02-06T00:20:24.940Z,102333.41
2018-02-06T00:22:52.467Z,102326.95
2018-02-06T00:25:19.932Z,102326.94
2018-02-06T00:27:47.414Z,102330.38
2018-02-06T00:30:14.889Z,102317.47
2018-02-06T00:32:42.366Z,102320.92
2018-02-06T00:35:09.843Z,102314.89
2018-02-06T00:37:37.394Z,102315.75
2018-02-06T00:40:04.870Z,102311.91
2018-02-06T00:42:32.355Z,102302.02
2018-02-06T00:44:59.843Z,102300.71
2018-02-06T00:47:27.318Z,102303.73
2018-02-06T00:49:54.815Z,102296.83
2018-02-06T00:52:22.330Z,102295.55
2018-02-06T00:54:49.800Z,102288.66
2018-02-06T00:57:17.290Z,102290.81
2018-02-06T00:59:44.770Z,102289.07
2018-02-06T01:02:12.250Z,102289.94
2018-02-06T01:04:39.738Z,102280.07
2018-02-06T01:07:07.216Z,102279.62
2018-02-06T01:09:34.719Z,102271.47
2018-02-06T01:12:02.203Z,102269.73
2018-02-06T01:14:29.680Z,102265.86
2018-02-06T01:16:57.184Z,102263.72
2018-02-06T01:19:24.679Z,102264.14
2018-02-06T01:21:52.158Z,102261.55
2018-02-06T01:24:19.650Z,102257.27
2018-02-06T01:26:47.135Z,102250.40
2018-02-06T01:29:14.615Z,102250.40
2018-02-06T01:31:42.107Z,102249.53
2018-02-06T01:34:09.588Z,102236.63
2018-02-06T01:36:37.056Z,102240.08
2018-02-06T01:39:04.551Z,102236.63
2018-02-06T01:41:32.034Z,102234.92
2018-02-06T01:43:59.518Z,102234.05
2018-02-06T01:46:26.992Z,102234.05
2018-02-06T01:48:54.489Z,102234.48
2018-02-06T01:51:21.962Z,102237.08
2018-02-06T01:53:49.463Z,102229.34
2018-02-06T01:56:16.944Z,102236.63
2018-02-06T01:58:44.423Z,102237.50
2018-02-06T02:01:11.913Z,102231.06
2018-02-06T02:03:39.394Z,102232.34
2018-02-06T02:06:06.883Z,102234.05
2018-02-06T02:08:34.359Z,102228.89
2018-02-06T02:11:01.844Z,102233.61
2018-02-06T02:13:29.332Z,102226.75
2018-02-06T02:15:56.825Z,102227.19
2018-02-06T02:18:24.307Z,102227.63
2018-02-06T02:20:51.783Z,102222.89
2018-02-06T02:23:19.275Z,102219.45
2018-02-06T02:25:46.760Z,102221.16
2018-02-06T02:28:14.247Z,102220.30
2018-02-06T02:30:41.744Z,102213.42
2018-02-06T02:33:09.229Z,102215.15
2018-02-06T02:35:36.718Z,102213.41
2018-02-06T02:38:04.190Z,102203.99
2018-02-06T02:40:31.675Z,102206.56
2018-02-06T04:38:30.561Z,102126.62
2018-02-06T04:40:58.068Z,102135.66
2018-02-06T04:43:25.541Z,102129.65
2018-02-06T04:45:53.044Z,102126.64
2018-02-06T04:48:20.526Z,102125.34
2018-02-06T04:50:48.008Z,102118.91
2018-02-06T04:53:15.499Z,102122.35
2018-02-06T04:55:42.989Z,102118.05
2018-02-06T04:58:10.479Z,102118.89
2018-02-06T05:00:37.965Z,102107.31
2018-02-06T05:03:05.444Z,102109.02
2018-02-06T05:05:32.934Z,102108.18
2018-02-06T05:08:00.410Z,102104.30
2018-02-06T05:10:27.886Z,102103.03
2018-02-06T05:12:55.376Z,102097.85
2018-02-06T05:15:22.850Z,102093.56
2018-02-06T05:17:50.330Z,102099.58
2018-02-06T05:20:17.802Z,102092.28
2018-02-06T05:22:45.350Z,102090.13
2018-02-06T05:25:12.835Z,102088.43
2018-02-06T05:27:40.312Z,102084.56
2018-02-06T05:30:07.802Z,102084.56
2018-02-06T05:32:35.293Z,102081.13
2018-02-06T05:35:02.782Z,102087.13
2018-02-06T05:37:30.262Z,102078.10
2018-02-06T05:39:57.744Z,102079.39
2018-02-06T05:42:25.222Z,102079.41
2018-02-06T05:44:52.718Z,102081.53
2018-02-06T05:47:20.211Z,102075.97
2018-02-06T05:49:47.703Z,102073.81
2018-02-06T05:52:15.208Z,102085.86
2018-02-06T05:54:42.690Z,102075.11
2018-02-06T05:57:10.172Z,102076.41
2018-02-06T05:59:37.643Z,102070.37
2018-02-06T06:02:05.124Z,102073.38
2018-02-06T06:04:32.607Z,102077.66
2018-02-06T06:07:00.051Z,102073.38
2018-02-06T06:09:27.588Z,102068.22
2018-02-06T06:11:55.089Z,102062.65
2018-02-06T06:14:22.586Z,102065.66
2018-02-06T06:16:50.068Z,102064.36
2018-02-06T06:19:17.538Z,102061.34
2018-02-06T06:21:45.031Z,102065.66
2018-02-06T06:24:12.519Z,102056.64
2018-02-06T06:26:40.025Z,102055.77
2018-02-06T06:29:07.520Z,102057.06
2018-02-06T06:31:35.025Z,102057.05
2018-02-06T06:34:02.499Z,102051.89
2018-02-06T06:36:29.995Z,102044.61
2018-02-06T06:38:57.488Z,102042.03
2018-02-06T06:41:24.970Z,102041.19
2018-02-06T06:43:52.470Z,102039.45
2018-02-06T06:46:19.978Z,102036.87
2018-02-06T06:48:47.464Z,102038.16
2018-02-06T06:51:14.959Z,102042.05
2018-02-06T06:53:42.454Z,102038.59
2018-02-06T06:56:09.952Z,102039.03
2018-02-06T06:58:37.439Z,102034.28
2018-02-06T07:01:04.948Z,102037.74
2018-02-06T07:03:32.439Z,102039.89
2018-02-06T07:05:59.906Z,102034.73
2018-02-06T07:08:27.398Z,102039.89
2018-02-06T07:10:54.883Z,102042.88
2018-02-06T07:13:22.367Z,102043.73
2018-02-06T07:15:49.853Z,102042.44
2018-02-06T07:18:17.339Z,102038.14
2018-02-06T07:20:44.911Z,102042.03
2018-02-06T07:23:12.394Z,102040.30
2018-02-06T07:25:39.895Z,102039.86
2018-02-06T07:28:07.407Z,102042.88
2018-02-06T07:30:34.912Z,102036.86
2018-02-06T07:33:02.431Z,102035.14
2018-02-06T07:35:29.928Z,102029.55
2018-02-06T07:37:57.406Z,102031.27
2018-02-06T07:40:24.905Z,102030.00
2018-02-06T07:42:52.395Z,102029.56
2018-02-06T07:45:19.904Z,102036.45
2018-02-06T07:47:47.380Z,102037.73
2018-02-06T07:50:14.868Z,102035.56
2018-02-06T07:52:42.363Z,102037.73
2018-02-06T07:55:09.852Z,102038.16
2018-02-06T07:57:37.330Z,102033.87
2018-02-06T08:00:04.832Z,102040.30
2018-02-06T08:02:32.414Z,102040.31
2018-02-06T08:04:59.904Z,102042.05
2018-02-06T08:07:27.394Z,102046.33
2018-02-06T08:09:54.880Z,102050.17
2018-02-06T08:12:22.409Z,102052.77
2018-02-06T08:14:49.893Z,102058.36
2018-02-06T08:17:17.371Z,102058.33
2018-02-06T08:19:44.878Z,102059.63
2018-02-06T08:22:12.384Z,102059.64
2018-02-06T08:24:39.886Z,102058.36
2018-02-06T08:27:07.399Z,102059.66
2018-02-06T08:29:34.883Z,102058.78
2018-02-06T08:32:02.391Z,102057.07
2018-02-06T08:34:29.956Z,102054.47
2018-02-06T08:36:57.445Z,102064.80
2018-02-06T08:39:24.955Z,102066.08
2018-02-06T08:41:52.455Z,102066.08
2018-02-06T08:44:19.931Z,102067.80
2018-02-06T08:46:47.420Z,102070.37
2018-02-06T08:49:14.890Z,102067.36
2018-02-06T08:51:42.375Z,102067.38
2018-02-06T08:54:09.868Z,102068.67
2018-02-06T08:56:37.343Z,102073.81
2018-02-06T08:59:04.831Z,102074.69
2018-02-06T09:01:32.316Z,102077.67
2018-02-06T09:03:59.812Z,102077.70
2018-02-06T09:06:27.297Z,102078.97
2018-02-06T09:08:54.812Z,102081.55
2018-02-06T09:11:22.303Z,102077.68
2018-02-06T09:13:49.874Z,102078.13
2018-02-06T09:16:17.347Z,102084.97
2018-02-06T09:18:44.887Z,102093.56
2018-02-06T09:21:12.359Z,102092.27
2018-02-06T09:23:39.841Z,102096.99
2018-02-06T09:26:07.319Z,102093.55
2018-02-06T09:28:34.811Z,102093.55
2018-02-06T09:31:02.330Z,102093.13
2018-02-06T09:33:29.825Z,102096.55
2018-02-06T09:35:57.295Z,102094.82
2018-02-06T09:38:24.775Z,102095.69
2018-02-06T09:40:52.246Z,102095.70
2018-02-06T09:43:19.741Z,102099.98
2018-02-06T09:45:47.231Z,102096.58
2018-02-06T09:48:14.737Z,102099.13
2018-02-06T09:50:42.215Z,102093.56
2018-02-06T09:53:09.706Z,102100.01
2018-02-06T09:55:37.192Z,102096.57
2018-02-06T09:58:04.666Z,102101.71
2018-02-06T10:00:32.163Z,102098.71
2018-02-06T10:02:59.655Z,102099.57
2018-02-06T10:05:27.172Z,102103.45
2018-02-06T10:07:54.679Z,102104.30
2018-02-06T10:10:22.180Z,102104.30
2018-02-06T10:12:49.698Z,102100.44
2018-02-06T10:15:17.203Z,102097.00
2018-02-06T10:17:45.436Z,102094.84
2018-02-06T10:20:12.946Z,102097.87
2018-02-06T10:22:40.423Z,102096.99
2018-02-06T10:25:07.932Z,102092.72
2018-02-06T10:27:35.441Z,102093.55
2018-02-06T10:30:02.921Z,102093.55
2018-02-06T10:32:30.433Z,102095.70
2018-02-06T10:34:57.963Z,102096.58
2018-02-06T10:37:25.456Z,102094.00
2018-02-06T10:39:52.948Z,102099.59
2018-02-06T10:42:20.464Z,102088.42
2018-02-06T10:44:47.975Z,102088.86
2018-02-06T10:47:15.442Z,102090.15
2018-02-06T10:49:42.980Z,102093.14
2018-02-06T10:52:10.451Z,102088.41
2018-02-06T10:54:37.999Z,102081.56
2018-02-06T10:57:05.483Z,102081.56
2018-02-06T10:59:32.983Z,102085.41
2018-02-06T11:02:00.463Z,102086.70
2018-02-06T11:04:28.095Z,102086.70
2018-02-06T11:06:55.658Z,102086.70
2018-02-06T11:09:23.144Z,102084.97
2018-02-06T11:11:50.672Z,102084.12
2018-02-06T11:14:18.213Z,102081.11
2018-02-06T11:16:45.699Z,102080.66
2018-02-06T11:19:13.881Z,102083.23
2018-02-06T11:21:41.364Z,102080.64
2018-02-06T11:24:09.270Z,102082.38
2018-02-06T11:26:36.849Z,102083.21
2018-02-06T11:29:04.889Z,102084.95
2018-02-06T11:31:32.395Z,102085.39
2018-02-06T11:33:59.896Z,102087.54
2018-02-06T11:36:27.415Z,102081.53
2018-02-06T11:38:56.872Z,102082.80
2018-02-06T11:41:24.510Z,102084.12
2018-02-06T11:43:52.031Z,102083.25
2018-02-06T11:46:19.585Z,102078.51
2018-02-06T11:48:47.080Z,102080.23
2018-02-06T11:51:14.599Z,102072.08
2018-02-06T11:53:42.079Z,102070.35
2018-02-06T11:56:09.555Z,102070.37
2018-02-06T11:58:37.067Z,102069.50
2018-02-06T12:01:04.568Z,102066.06
2018-02-06T12:03:32.074Z,102068.21
2018-02-06T12:05:59.562Z,102062.20
2018-02-06T12:08:27.038Z,102063.05
2018-02-06T12:10:54.619Z,102062.62
2018-02-06T12:13:22.112Z,102059.19
2018-02-06T12:15:49.590Z,102067.34
2018-02-06T12:18:17.082Z,102063.89
2018-02-06T12:20:44.565Z,102064.75
2018-02-06T12:23:12.066Z,102057.89
2018-02-06T12:25:39.530Z,102049.72
2018-02-06T12:28:07.072Z,102052.30
2018-02-06T12:30:34.564Z,102049.31
2018-02-06T12:33:02.182Z,102048.45
2018-02-06T12:35:29.707Z,102047.99
2018-02-06T12:37:57.192Z,102042.41
2018-02-06T12:40:24.671Z,102046.69
2018-02-06T12:42:52.178Z,102039.80
2018-02-06T12:45:19.692Z,102033.80
2018-02-06T12:47:47.212Z,102038.06
2018-02-06T12:50:14.743Z,102036.36
2018-02-06T12:52:42.965Z,102038.05
2018-02-06T12:55:10.645Z,102040.22
2018-02-06T12:57:38.144Z,102035.50
2018-02-06T13:00:05.651Z,102034.19
2018-02-06T13:02:33.167Z,102036.76
2018-02-06T13:05:01.532Z,102029.44
2018-02-06T13:07:29.064Z,102029.02
2018-02-06T13:09:56.582Z,102030.75
2018-02-06T13:12:24.102Z,102030.31
2018-02-06T13:14:51.575Z,102024.72
2018-02-06T13:17:19.071Z,102025.58
2018-02-06T13:19:46.613Z,102023.43
2018-02-06T13:22:14.155Z,102020.81
2018-02-06T13:24:41.668Z,102017.80
2018-02-06T13:27:09.207Z,102016.06
2018-02-06T13:29:36.682Z,102003.13
2018-02-06T13:32:04.661Z,102005.69
2018-02-06T13:34:32.723Z,102007.83
2018-02-06T13:37:00.207Z,102002.64
2018-02-06T13:39:27.690Z,101996.59
2018-02-06T13:41:55.190Z,101999.57
2018-02-06T13:44:22.670Z,102004.70
2018-02-06T13:46:50.163Z,102007.70
2018-02-06T13:49:17.636Z,102012.03
2018-02-06T13:51:45.128Z,102014.17
2018-02-06T13:54:12.619Z,102021.52
2018-02-06T13:56:40.150Z,102018.51
2018-02-06T13:59:07.643Z,102027.99
2018-02-06T14:01:35.130Z,102022.40
2018-02-06T14:04:02.622Z,102020.27
2018-02-06T14:06:30.121Z,102022.86
2018-02-06T14:08:57.599Z,102017.27
2018-02-06T14:11:25.522Z,102019.01
2018-02-06T14:13:53.114Z,102020.71
2018-02-06T14:16:20.614Z,102027.59
2018-02-06T14:18:48.086Z,102036.18
2018-02-06T14:21:15.671Z,102024.56
2018-02-06T14:23:43.162Z,102038.73
2018-02-06T14:26:10.651Z,102033.15
2018-02-06T14:28:38.142Z,102032.73
2018-02-06T14:31:05.619Z,102043.89
2018-02-06T14:33:33.119Z,102035.69
2018-02-06T14:36:00.594Z,102032.70
2018-02-06T14:38:28.089Z,102030.98
2018-02-06T14:40:55.576Z,102032.67
2018-02-06T14:43:23.098Z,102021.91
2018-02-06T14:45:50.587Z,102023.60
2018-02-06T14:48:18.087Z,102024.06
2018-02-06T14:50:45.583Z,102028.36
2018-02-06T14:53:13.176Z,102018.50
2018-02-06T14:55:40.674Z,102025.85
2018-02-06T14:58:08.158Z,102019.40
2018-02-06T15:00:35.667Z,102019.38
2018-02-06T15:03:07.496Z,102027.13
2018-02-06T15:05:34.989Z,102038.77
2018-02-06T15:08:02.472Z,102041.34
2018-02-06T15:10:29.972Z,102043.94
2018-02-06T15:12:57.697Z,102035.38
2018-02-06T15:15:25.167Z,102038.81
2018-02-06T15:17:52.647Z,102042.68
2018-02-06T15:20:20.126Z,102042.27
2018-02-06T15:22:47.619Z,102047.44
2018-02-06T15:25:15.123Z,102047.87
2018-02-06T15:27:42.629Z,102045.26
2018-02-06T15:30:10.134Z,102043.56
2018-02-06T15:32:37.611Z,102049.17
2018-02-06T15:35:05.091Z,102048.30
2018-02-06T15:37:32.570Z,102042.73
2018-02-06T15:40:00.044Z,102039.72
2018-02-06T15:42:27.538Z,102044.92
2018-02-06T15:44:55.014Z,102045.33
2018-02-06T15:47:22.484Z,102048.78
2018-02-06T15:49:49.979Z,102053.95
2018-02-06T15:52:17.455Z,102056.98
2018-02-06T15:54:44.947Z,102054.42
2018-02-06T15:57:12.450Z,102053.98
2018-02-06T15:59:39.942Z,102057.84
2018-02-06T16:02:07.458Z,102063.43
2018-02-06T16:04:34.946Z,102063.89
2018-02-06T16:07:02.431Z,102065.16
2018-02-06T16:09:30.007Z,102061.73
2018-02-06T16:11:57.483Z,102061.33
2018-02-06T16:14:25.010Z,102066.46
2018-02-06T16:16:52.855Z,102076.36
2018-02-06T16:19:20.344Z,102075.08
2018-02-06T16:21:47.974Z,102070.36
2018-02-06T16:24:15.463Z,102066.05
2018-02-06T16:26:42.934Z,102070.37
2018-02-06T16:29:10.434Z,102070.78
2018-02-06T16:31:37.933Z,102077.67
2018-02-06T16:34:05.413Z,102078.11
2018-02-06T16:36:32.895Z,102071.65
2018-02-06T16:39:00.388Z,102081.95
2018-02-06T16:41:27.863Z,102077.25
2018-02-06T16:43:55.340Z,102081.55
2018-02-06T16:46:22.859Z,102075.52
2018-02-06T16:48:50.340Z,102082.40
2018-02-06T16:51:17.817Z,102084.13
2018-02-06T16:53:45.295Z,102082.40
2018-02-06T16:56:12.730Z,102087.57
2018-02-06T16:58:40.241Z,102089.73
2018-02-06T17:01:07.739Z,102090.14
2018-02-06T17:03:35.245Z,102099.16
2018-02-06T17:06:02.728Z,102098.74
2018-02-06T17:08:30.239Z,102097.46
2018-02-06T17:10:57.679Z,102103.91
2018-02-06T17:13:25.202Z,102094.43
2018-02-06T17:15:52.678Z,102101.73
2018-02-06T17:18:20.154Z,102103.04
2018-02-06T17:20:47.646Z,102109.92
2018-02-06T17:23:15.139Z,102115.49
2018-02-06T17:25:42.623Z,102116.78
2018-02-06T17:28:10.118Z,102120.64
2018-02-06T17:30:37.607Z,102117.61
2018-02-06T17:33:05.098Z,102113.77
2018-02-06T17:35:32.575Z,102118.47
2018-02-06T17:38:00.071Z,102118.48
2018-02-06T17:40:27.546Z,102122.34
2018-02-06T17:42:55.032Z,102127.49
2018-02-06T17:45:22.511Z,102121.07
2018-02-06T17:47:50.121Z,102132.23
2018-02-06T17:50:17.592Z,102130.50
2018-02-06T17:52:45.074Z,102134.37
2018-02-06T17:55:12.589Z,102135.69
2018-02-06T17:57:40.068Z,102136.97
2018-02-06T18:00:07.579Z,102136.55
2018-02-06T18:02:35.059Z,102149.44
2018-02-06T18:05:02.553Z,102146.84
2018-02-06T18:07:30.034Z,102149.41
2018-02-06T18:09:57.552Z,102148.99
2018-02-06T18:12:25.030Z,102151.99
2018-02-06T18:14:52.526Z,102152.44
2018-02-06T18:17:20.052Z,102160.16
2018-02-06T18:19:47.557Z,102154.14
2018-02-06T18:22:15.059Z,102156.73
2018-02-06T18:24:42.553Z,102170.91
2018-02-06T18:27:10.063Z,102167.45
2018-02-06T18:29:37.539Z,102167.02
2018-02-06T18:32:05.025Z,102171.78
2018-02-06T18:34:32.511Z,102177.36
2018-02-06T18:37:00.054Z,102171.33
2018-02-06T18:39:27.539Z,102169.17
2018-02-06T18:41:55.015Z,102173.08
2018-02-06T18:44:22.524Z,102176.91
2018-02-06T18:46:50.009Z,102167.91
2018-02-06T18:49:17.498Z,102168.78
2018-02-06T18:51:44.978Z,102174.78
2018-02-06T18:54:12.468Z,102176.49
2018-02-06T18:56:39.951Z,102171.34
2018-02-06T18:59:07.470Z,102171.36
2018-02-06T19:01:34.950Z,102180.36
2018-02-06T19:04:02.425Z,102188.95
2018-02-06T19:06:29.922Z,102187.69
2018-02-06T19:08:57.399Z,102191.97
2018-02-06T19:11:24.879Z,102198.84
2018-02-06T19:13:52.383Z,102193.24
2018-02-06T19:16:19.869Z,102198.00
2018-02-06T19:18:47.351Z,102189.83
2018-02-06T19:21:14.831Z,102202.70
2018-02-06T19:23:42.307Z,102200.98
2018-02-06T19:26:09.807Z,102198.86
2018-02-06T19:28:37.280Z,102211.73
2018-02-06T19:31:05.205Z,102215.17
2018-02-06T19:33:32.701Z,102219.48
2018-02-06T19:36:00.179Z,102224.62
2018-02-06T19:38:27.666Z,102227.63
2018-02-06T19:40:55.146Z,102225.92
2018-02-06T19:43:22.640Z,102218.20
2018-02-06T19:45:50.135Z,102216.47
2018-02-06T19:48:17.614Z,102218.20
2018-02-06T19:50:45.115Z,102211.74
2018-02-06T19:53:12.595Z,102207.86
2018-02-06T19:55:40.068Z,102215.17
2018-02-06T19:58:07.588Z,102220.33
2018-02-06T20:00:35.070Z,102222.45
2018-02-06T20:03:02.575Z,102216.87
2018-02-06T20:05:30.083Z,102216.02
2018-02-06T20:07:57.561Z,102216.87
2018-02-06T20:10:25.051Z,102222.02
2018-02-06T20:12:52.544Z,102233.59
2018-02-06T20:15:20.031Z,102230.18
2018-02-06T20:17:47.506Z,102223.70
2018-02-06T20:20:15.001Z,102227.13
2018-02-06T20:22:42.504Z,102225.42
2018-02-06T20:25:09.982Z,102232.73
2018-02-06T20:27:37.473Z,102242.58
2018-02-06T20:30:04.955Z,102243.00
2018-02-06T20:32:32.436Z,102238.28
2018-02-06T20:34:59.931Z,102231.38
2018-02-06T20:37:27.432Z,102237.42
2018-02-06T20:39:54.908Z,102235.26
2018-02-06T20:42:22.391Z,102239.55
2018-02-06T20:44:49.916Z,102238.24
2018-02-06T20:47:17.409Z,102242.97
2018-02-06T20:49:44.899Z,102246.84
2018-02-06T20:52:12.380Z,102248.12
2018-02-06T20:54:39.875Z,102255.39
2018-02-06T20:57:07.383Z,102255.39
2018-02-06T20:59:34.889Z,102260.98
2018-02-06T21:02:02.391Z,102261.40
2018-02-06T21:04:29.828Z,102266.56
2018-02-06T21:06:57.326Z,102267.83
2018-02-06T21:09:24.810Z,102282.85
2018-02-06T21:11:52.317Z,102277.69
2018-02-06T21:14:19.855Z,102274.70
2018-02-06T21:16:47.343Z,102277.70
2018-02-06T21:19:14.824Z,102285.83
2018-02-06T21:21:42.316Z,102288.84
2018-02-06T21:24:09.871Z,102285.84
2018-02-06T21:26:37.385Z,102285.41
2018-02-06T21:29:04.912Z,102279.83
2018-02-06T21:31:32.426Z,102285.39
2018-02-06T21:33:59.911Z,102295.29
2018-02-06T21:36:27.438Z,102285.41
2018-02-06T21:38:54.923Z,102282.41
2018-02-06T21:41:22.428Z,102277.70
2018-02-06T21:43:49.897Z,102287.60
2018-02-06T21:46:17.379Z,102280.70
2018-02-06T21:48:44.883Z,102289.33
2018-02-06T21:51:12.372Z,102288.89
2018-02-06T21:53:39.864Z,102283.28
2018-02-06T21:56:07.391Z,102285.86
2018-02-06T21:58:34.871Z,102286.70
2018-02-06T22:01:02.343Z,102284.13
2018-02-06T22:03:29.836Z,102280.25
2018-02-06T22:05:57.326Z,102284.11
2018-02-06T22:08:25.024Z,102283.27
2018-02-06T22:10:52.311Z,102287.12
2018-02-06T22:13:19.786Z,102292.25
2018-02-06T22:15:47.265Z,102287.53
2018-02-06T22:18:14.766Z,102294.42
2018-02-06T22:20:42.248Z,102293.55
2018-02-06T22:23:09.718Z,102303.42
2018-02-06T22:25:37.206Z,102302.98
2018-02-06T22:28:04.694Z,102301.27
2018-02-06T22:30:32.194Z,102296.53
2018-02-06T22:32:59.663Z,102301.70
2018-02-06T22:35:27.134Z,102306.41
2018-02-06T22:37:54.626Z,102297.82
2018-02-06T22:40:22.107Z,102310.70
2018-02-06T22:42:49.604Z,102311.15
2018-02-06T22:45:17.094Z,102310.72
2018-02-06T22:47:44.583Z,102306.85
2018-02-06T22:50:12.083Z,102319.73
2018-02-06T22:52:39.570Z,102311.16
2018-02-06T22:55:07.054Z,102317.59
2018-02-06T22:57:34.536Z,102316.73
2018-02-06T23:00:02.036Z,102320.58
2018-02-06T23:02:29.524Z,102319.30
2018-02-06T23:04:57.011Z,102331.76
2018-02-06T23:07:24.491Z,102321.04
2018-02-06T23:09:51.962Z,102330.02
2018-02-06T23:12:19.476Z,102331.30
2018-02-06T23:14:46.906Z,102332.16
2018-02-06T23:17:14.419Z,102327.88
2018-02-06T23:19:41.896Z,102332.58
2018-02-06T23:22:09.382Z,102338.59
2018-02-06T23:24:36.867Z,102333.42
2018-02-06T23:27:04.351Z,102339.01
2018-02-06T23:29:31.836Z,102337.31
2018-02-06T23:31:59.349Z,102338.59
2018-02-06T23:34:26.818Z,102330.86
2018-02-06T23:36:54.320Z,102332.58
2018-02-06T23:39:21.871Z,102332.58
2018-02-06T23:41:49.356Z,102334.72
2018-02-06T23:44:16.839Z,102342.48
2018-02-06T23:46:44.322Z,102334.34
2018-02-06T23:49:11.807Z,102342.51
2018-02-06T23:51:39.283Z,102337.80
2018-02-06T23:54:06.788Z,102343.83
2018-02-06T23:56:34.301Z,102338.70
2018-02-06T23:59:01.810Z,102339.11
